Nouveau site internet !.

Nouveau site internet !.

Bienvenue sur notre nouveau site internet !
Vous pouvez désormais commander votre vol à sensation ou d’initiation directement en ligne !

Patrouille Sparflex - figure aérienne - Fly and Fun

Voir toute les actualités.

Patrouille Sparflex - figure aérienne - Fly and Fun
Patrouille Sparflex - figure aérienne - Fly and Fun
METAR :

LFQA 100300Z AUTO VRB03KT //// // NSC 21/15 Q1013


vue en direct sur l'aérodrome
mentions légales politique de confidentialité
Cochet Concept
cx